x

Middle Nomad (46004) Wave Buoy

12:00pm - Sat 20th Dec 2014 All times are PST. -8 hours from GMT.

  • Sig Wave height 15.7ft
  • Peak Period 10s
  • Wind
    27mph, 36mph gusts
  • Air Temp 49°f
  • Sea Pressure 982.4mb
  • Middle Nomad
  • Middle Nomad

More Historic Weather Station data

Upgrade to MSW Pro to gain access to the past 30 days of data for over 8000 Wavebouys and Weather Stations around the globe.

Join Pro

Comparision Forecast

View Surf forecast
   
Sat 12/20 12:00pm 15.5ft 10s 27 36 mph 982.4mb 49f
11:00am 15ft 11s 29 34 mph 981.7mb 48f
10:00am 15ft 11s 22 27 mph 981.1mb 49f
9:00am 15ft 10s 25 31 mph 980.3mb 48f
8:00am 15.5ft 12s 22 36 mph 979.9mb 47f
7:00am 16ft 14s 20 25 mph 979.6mb 48f
6:00am 15.5ft 10s 25 31 mph 979.2mb 49f
5:00am 16.5ft 14s 25 29 mph 979.1mb 49f
4:00am 15.5ft 13s 27 34 mph 978.7mb 50f
3:00am 16ft 14s 22 29 mph 978.6mb 48f
2:00am 16.5ft 14s 22 29 mph 978.4mb 48f
1:00am 18.5ft 14s 22 29 mph 977.9mb 50f
12:00am 18ft 14s 25 29 mph 978mb 50f
Fri 12/19 11:00pm 19.5ft 14s 25 31 mph 977.8mb 50f
10:00pm 19.5ft 13s 20 27 mph 977.9mb 50f
9:00pm 19.5ft 14s 20 25 mph 977.9mb 51f
8:00pm 18ft 15s 22 29 mph 978mb 50f
7:00pm 19ft 14s 31 40 mph 978.2mb 49f
6:00pm 18.5ft 15s 31 40 mph 979.5mb 48f
5:00pm 18.5ft 17s 31 40 mph 980.8mb 48f
4:00pm 19.5ft 17s 34 40 mph 982.1mb 48f
3:00pm 19.5ft 17s 29 40 mph 983.7mb 48f
2:00pm 21ft 15s 29 36 mph 985.1mb 48f
1:00pm  -   -  27
mph
986.2mb 49f
12:00pm 22.5ft 16s 25 31 mph 987mb 49f
11:00am 24.5ft 14s 22 29 mph 987.5mb 47f
10:00am 24.5ft 16s 27 36 mph 986.9mb 48f
9:00am 25.5ft 14s 29 36 mph 986.1mb 48f
8:00am 25.5ft 15s 29 38 mph 985.4mb 48f
7:00am 24.5ft 16s 29 40 mph 984.3mb 47f
6:00am 22ft 16s 31 45 mph 983.4mb 48f
5:00am 21.5ft 18s 27 34 mph 983.8mb 47f
4:00am 21.5ft 18s 25 29 mph 984.5mb 46f
3:00am 21ft 18s 31 38 mph 984.7mb 47f
2:00am 19ft 18s 27 34 mph 984.9mb 49f
1:00am 19.5ft 18s 27 34 mph 984.9mb 48f
12:00am 21ft 20s 29 34 mph 985.1mb 47f
Thu 12/18 11:00pm 21.5ft 20s 27 36 mph 985.1mb 47f
10:00pm 21.5ft 20s 31 40 mph 985mb 47f
9:00pm 21ft 15s 29 36 mph 985.1mb 48f
8:00pm 20.5ft 18s 29 34 mph 985.2mb 48f
7:00pm 19ft 18s 29 36 mph 985.6mb 49f
6:00pm 17ft 18s 29 34 mph 985.8mb 49f
5:00pm 16.5ft 20s 25 31 mph 986.3mb 49f
4:00pm 14ft 10s 25 31 mph 986.3mb 49f
3:00pm 12.5ft 10s 25 29 mph 986.4mb 49f
2:00pm 12ft 10s 22 29 mph 986.6mb 49f
1:00pm 13.5ft 10s 22 27 mph 986.8mb 49f
12:00pm 11ft 9s 18 22 mph 987.1mb 48f
11:00am 11.5ft 10s 20 29 mph 987.1mb 47f
10:00am 12ft 9s 22 27 mph 986.1mb 49f
9:00am 13.5ft 10s 25 31 mph 985.3mb 49f
8:00am 13.5ft 10s 22 36 mph 984.9mb 48f
7:00am 14ft 9s 20 27 mph 984.5mb 49f
6:00am 14.5ft 9s 20 27 mph 983.8mb 49f
5:00am 14.5ft 9s 25 31 mph 983.6mb 48f
4:00am 14ft 8s 22 27 mph 983.7mb 48f
3:00am 15ft 8s 25 31 mph 983.9mb 48f
2:00am 14ft 7s 34 43 mph 983.4mb 49f
1:00am  -   -  36
mph
985.4mb 48f
12:00am 12.5ft 7s 36 45 mph 987.4mb 48f
Wed 12/17 11:00pm 11.5ft 6s 36 45 mph 989.9mb 47f
10:00pm 10.5ft 11s 34 40 mph 991.9mb 48f
9:00pm 10.5ft 12s 29 36 mph 993.6mb 49f
8:00pm 10ft 11s 27 31 mph 995.7mb 49f
7:00pm 10.5ft 12s 25 29 mph 997.4mb 49f
6:00pm 11ft 11s 25 29 mph 998.2mb 49f
5:00pm 11.5ft 14s 20 29 mph 998.7mb 48f
4:00pm 13ft 13s 18 22 mph 999.7mb 48f
3:00pm 13ft 12s 18 22 mph 1000.9mb 48f
2:00pm 11.5ft 12s 16 18 mph 1001.4mb 49f
1:00pm 11ft 11s 16 18 mph 1001.7mb 48f
12:00pm 12ft 13s 13 16 mph 1002.3mb 48f
11:00am 11ft 13s 11 16 mph 1002.2mb 48f
10:00am 11.5ft 14s 4 9 mph 1002.5mb 46f
9:00am 11ft 14s 13 16 mph 1001.7mb 48f
8:00am 11ft 14s 16 18 mph 1001.5mb 48f
7:00am 11.5ft 14s 11 16 mph 1001.1mb 47f
6:00am 12ft 14s 7 9 mph 1000.7mb 47f
5:00am 13ft 14s 16 18 mph 1000.5mb 47f
4:00am 12.5ft 14s 9 13 mph 999.7mb 48f
3:00am 14ft 13s 13 16 mph 999.5mb 46f
2:00am 14ft 15s 11 16 mph 998.9mb 48f
1:00am 14ft 14s 16 20 mph 998.7mb 48f
12:00am 15.5ft 13s 18 22 mph 998.4mb 47f
Tue 12/16 11:00pm 15.5ft 14s 31 36 mph 997.7mb 47f
10:00pm 14.5ft 14s 29 36 mph 997.8mb 47f